Weather History for Hereford, TX

Change the Weather History Date:

Wednesday, November 21, 2012

  Actual Average (KAMA) Record (KAMA)
Temperature  
Mean Temperature 50 °F 44 °F  
Max Temperature 71 °F 57 °F 81 °F (1966)
Min Temperature 30 °F 30 °F 4 °F (1906)
Degree Days  
Heating Degree Days 14 21  
Month to date heating degree days 352  
Since 1 July heating degree days 632  
Cooling Degree Days 0 0  
Month to date cooling degree days 0  
Year to date cooling degree days 1398  
Moisture  
Dew Point 33 °F    
Average Humidity 51    
Maximum Humidity 70    
Minimum Humidity 29    
Precipitation  
Precipitation 0.00 in 0.03 in 0.44 in (2011)
Month to date precipitation 0.62  
Year to date precipitation 19.47  
Snow  
Snow 0.00 in 0.10 in 3.40 in (1916)
Month to date snowfall 1.5  
Since 1 July snowfall 1.7  
Since 1 September snowfall 1.7  
Snow Depth -    
Sea Level Pressure  
Sea Level Pressure 30.16 in    
Wind  
Wind Speed 9 mph (SSW)    
Max Wind Speed 20 mph    
Max Gust Speed 31 mph    
Visibility 10 miles    
Events      
T = Trace of Precipitation, MM = Missing Value Source: NWS Daily Summary

Daily Weather History Graph

Daily Weather History Graph

Search for Another Location

Airport:

Trip Planner

Search our weather history database for the weather conditions in past years. The results will help you decide how hot, cold, wet, or windy it might be!

Date:

Astronomy

Nov. 21, 2012 Rise Set
Actual Time 7:29 AM CST 5:40 PM CST
Civil Twilight 7:02 AM CST 6:07 PM CST
Nautical Twilight 6:31 AM CST 6:38 PM CST
Astronomical Twilight 6:01 AM CST 7:08 PM CST
Moon 1:45 PM CST (11/21) 1:05 AM CST (11/21)
Length of Visible Light 11h 05m
Length of Day
10h 10m
First Quarter, 62% of the Moon is Illuminated
Nov 21
First Quarter
Nov 28
Full
Dec 6
Last Quarter
Dec 13
New
Dec 19
First Quarter

Hourly Weather History & Observations

Time (CST) Temp. Windchill Dew Point Humidity Pressure Visibility Wind Dir Wind Speed Gust Speed Precip Events Conditions
12:15 AM 37.4 °F 30.8 °F 28.4 °F 70% 30.25 in 10.0 mi SSW 9.2 mph - N/A   Clear
12:35 AM 41.0 °F 35.2 °F 28.4 °F 61% 30.24 in 10.0 mi SW 9.2 mph - N/A   Clear
12:55 AM 41.0 °F 35.2 °F 26.6 °F 57% 30.24 in 10.0 mi SSW 9.2 mph 16.1 mph N/A   Clear
1:15 AM 37.4 °F 32.8 °F 24.8 °F 60% 30.24 in 10.0 mi WSW 5.8 mph - N/A   Clear
1:35 AM 37.4 °F 34.9 °F 26.6 °F 65% 30.24 in 10.0 mi SW 3.5 mph - N/A   Clear
1:55 AM 37.4 °F 32.8 °F 26.6 °F 65% 30.24 in 10.0 mi SW 5.8 mph - N/A   Clear
2:15 AM 37.4 °F 32.1 °F 24.8 °F 60% 30.24 in 10.0 mi WSW 6.9 mph - N/A   Clear
2:35 AM 33.8 °F 30.8 °F 23.0 °F 65% 30.24 in 10.0 mi SSW 3.5 mph - N/A   Clear
2:55 AM 32.0 °F 26.4 °F 23.0 °F 69% 30.24 in 10.0 mi SW 5.8 mph - N/A   Clear
3:15 AM 32.0 °F 27.5 °F 21.2 °F 64% 30.24 in 10.0 mi SW 4.6 mph - N/A   Clear
3:35 AM 33.8 °F 30.8 °F 23.0 °F 65% 30.24 in 10.0 mi SW 3.5 mph - N/A   Clear
3:55 AM 32.0 °F 28.7 °F 21.2 °F 64% 30.23 in 10.0 mi SW 3.5 mph - N/A   Clear
4:15 AM 32.0 °F 28.7 °F 21.2 °F 64% 30.23 in 10.0 mi West 3.5 mph - N/A   Clear
4:35 AM 30.2 °F - 21.2 °F 69% 30.22 in 10.0 mi North - - N/A   Clear
4:55 AM 30.2 °F - 21.2 °F 69% 30.22 in 10.0 mi Calm Calm - N/A   Clear
5:15 AM 30.2 °F 26.7 °F 21.2 °F 69% 30.22 in 10.0 mi SW 3.5 mph - N/A   Clear
5:35 AM 30.2 °F - 21.2 °F 69% 30.23 in 10.0 mi Calm Calm - N/A   Clear
5:55 AM 32.0 °F 24.8 °F 23.0 °F 69% 30.22 in 10.0 mi WSW 8.1 mph - N/A   Clear
6:15 AM 32.0 °F 24.8 °F 21.2 °F 64% 30.22 in 10.0 mi WSW 8.1 mph - N/A   Clear
6:35 AM 33.8 °F 28.6 °F 23.0 °F 65% 30.22 in 10.0 mi WSW 5.8 mph - N/A   Clear
6:55 AM 32.0 °F 27.5 °F 21.2 °F 64% 30.22 in 10.0 mi WSW 4.6 mph - N/A   Clear
7:15 AM 33.8 °F 29.6 °F 21.2 °F 60% 30.23 in 10.0 mi SW 4.6 mph - N/A   Clear
7:35 AM 32.0 °F - 21.2 °F 64% 30.23 in 10.0 mi Calm Calm - N/A   Clear
7:55 AM 32.0 °F 26.4 °F 23.0 °F 69% 30.23 in 10.0 mi West 5.8 mph - N/A   Clear
8:15 AM 32.0 °F 28.7 °F 23.0 °F 69% 30.24 in 10.0 mi West 3.5 mph - N/A   Clear
8:35 AM 37.4 °F - 23.0 °F 56% 30.24 in 10.0 mi Calm Calm - N/A   Clear
8:55 AM 42.8 °F 41.1 °F 23.0 °F 46% 30.24 in 10.0 mi SW 3.5 mph - N/A   Clear
9:15 AM 46.4 °F 42.4 °F 26.6 °F 46% 30.24 in 10.0 mi SW 8.1 mph - N/A   Clear
9:35 AM 51.8 °F - 26.6 °F 38% 30.23 in 10.0 mi SW 9.2 mph 17.3 mph N/A   Clear
9:55 AM 53.6 °F - 28.4 °F 38% 30.24 in 10.0 mi WSW 10.4 mph 17.3 mph N/A   Clear
10:15 AM 57.2 °F - 30.2 °F 36% 30.23 in 10.0 mi SW 12.7 mph 16.1 mph N/A   Clear
10:35 AM 60.8 °F - 30.2 °F 31% 30.22 in 10.0 mi West 15.0 mph 19.6 mph N/A   Clear
10:55 AM 62.6 °F - 32.0 °F 32% 30.22 in 10.0 mi WSW 16.1 mph 20.7 mph N/A   Clear
11:15 AM 62.6 °F - 35.6 °F 37% 30.22 in 10.0 mi WSW 16.1 mph 21.9 mph N/A   Clear
11:35 AM 64.4 °F - 37.4 °F 37% 30.21 in 10.0 mi WSW 16.1 mph 24.2 mph N/A   Clear
11:55 AM 66.2 °F - 37.4 °F 35% 30.20 in 10.0 mi SW 16.1 mph 23.0 mph N/A   Clear
12:15 PM 68.0 °F - 37.4 °F 33% 30.18 in 10.0 mi SW 16.1 mph 29.9 mph N/A   Clear
12:35 PM 68.0 °F - 37.4 °F 33% 30.17 in 10.0 mi WSW 16.1 mph 25.3 mph N/A   Clear
12:55 PM 68.0 °F - 37.4 °F 33% 30.16 in 10.0 mi SW 15.0 mph 26.5 mph N/A   Clear
1:15 PM 68.0 °F - 39.2 °F 35% 30.15 in 10.0 mi WSW 13.8 mph 26.5 mph N/A   Clear
1:35 PM 69.8 °F - 39.2 °F 33% 30.14 in 10.0 mi SW 17.3 mph 27.6 mph N/A   Clear
1:55 PM 71.6 °F - 39.2 °F 31% 30.13 in 10.0 mi WSW 18.4 mph 25.3 mph N/A   Clear
2:15 PM 71.6 °F - 39.2 °F 31% 30.12 in 10.0 mi WSW 17.3 mph 27.6 mph N/A   Clear
2:35 PM 71.6 °F - 37.4 °F 29% 30.10 in 10.0 mi SSW 19.6 mph 28.8 mph N/A   Clear
2:55 PM 71.6 °F - 39.2 °F 31% 30.10 in 10.0 mi SW 18.4 mph 31.1 mph N/A   Clear
3:15 PM 69.8 °F - 41.0 °F 35% 30.10 in 10.0 mi WSW 16.1 mph 31.1 mph N/A   Clear
3:35 PM 69.8 °F - 37.4 °F 31% 30.09 in 10.0 mi SSE 15.0 mph 23.0 mph N/A   Clear
3:55 PM 69.8 °F - 39.2 °F 33% 30.09 in 10.0 mi South 19.6 mph 27.6 mph N/A   Clear
4:15 PM 69.8 °F - 41.0 °F 35% 30.09 in 10.0 mi SW 15.0 mph 26.5 mph N/A   Clear
4:35 PM 69.8 °F - 41.0 °F 35% 30.08 in 10.0 mi SSE 11.5 mph 17.3 mph N/A   Clear
4:55 PM 71.6 °F - 41.0 °F 33% 30.07 in 10.0 mi SE 10.4 mph 24.2 mph N/A   Clear
5:15 PM 69.8 °F - 41.0 °F 35% 30.08 in 10.0 mi SSE 15.0 mph 24.2 mph N/A   Clear
5:35 PM 68.0 °F - 41.0 °F 37% 30.08 in 10.0 mi SSW 13.8 mph 21.9 mph N/A   Scattered Clouds
5:55 PM 66.2 °F - 41.0 °F 40% 30.08 in 10.0 mi SSW 12.7 mph 21.9 mph N/A   Clear
6:15 PM 64.4 °F - 41.0 °F 42% 30.08 in 10.0 mi SSE 10.4 mph 19.6 mph N/A   Clear
6:35 PM 62.6 °F - 41.0 °F 45% 30.08 in 10.0 mi SE 10.4 mph 17.3 mph N/A   Clear
6:55 PM 62.6 °F - 41.0 °F 45% 30.09 in 10.0 mi SE 9.2 mph 16.1 mph N/A   Clear
7:15 PM 59.0 °F - 41.0 °F 51% 30.09 in 10.0 mi South 11.5 mph - N/A   Clear
7:35 PM 59.0 °F - 41.0 °F 51% 30.09 in 10.0 mi South 11.5 mph - N/A   Clear
7:55 PM 59.0 °F - 41.0 °F 51% 30.09 in 10.0 mi SSE 10.4 mph - N/A   Clear
8:15 PM 59.0 °F - 41.0 °F 51% 30.08 in 10.0 mi East 8.1 mph 16.1 mph N/A   Clear
8:35 PM 59.0 °F - 41.0 °F 51% 30.08 in 10.0 mi SSE 11.5 mph 18.4 mph N/A   Clear
8:55 PM 59.0 °F - 41.0 °F 51% 30.08 in 10.0 mi SSE 10.4 mph 17.3 mph N/A   Clear
9:15 PM 57.2 °F - 41.0 °F 55% 30.08 in 10.0 mi SW 12.7 mph - N/A   Clear
9:35 PM 55.4 °F - 41.0 °F 58% 30.07 in 10.0 mi South 10.4 mph - N/A   Clear
9:55 PM 55.4 °F - 41.0 °F 58% 30.07 in 10.0 mi South 10.4 mph - N/A   Clear
10:15 PM 53.6 °F - 41.0 °F 62% 30.07 in 10.0 mi South 11.5 mph - N/A   Clear
10:35 PM 53.6 °F - 41.0 °F 62% 30.06 in 10.0 mi South 11.5 mph 17.3 mph N/A   Clear
10:55 PM 53.6 °F - 41.0 °F 62% 30.04 in 10.0 mi South 10.4 mph - N/A   Clear
11:15 PM 53.6 °F - 41.0 °F 62% 30.04 in 10.0 mi SSW 12.7 mph 17.3 mph N/A   Clear
11:35 PM 53.6 °F - 42.8 °F 67% 30.04 in 10.0 mi WSW 13.8 mph - N/A   Clear
11:55 PM 53.6 °F - 42.8 °F 67% 30.04 in 10.0 mi SSW 10.4 mph 17.3 mph N/A   Clear